Terminal Aerodrome Forecast
Issued by NWS Bismarck, ND

Home | Current Version | Previous Version | Graphics & Text | Print | Product List | Glossary On
Versions: 1 2 3 4 5 6 7 8 9 10 11 12 13
000
FTUS43 KBIS 270529
TAFBIS
TAF
KBIS 270529Z 2706/2806 15004KT P6SM SCT090 SCT200
     FM271000 VRB03KT 5SM BR SCT100
     FM271400 23006KT P6SM SCT100
     FM271700 26011KT P6SM SCT100
     FM272200 31012G20KT P6SM FEW100
     FM280100 33005KT P6SM SKC=

USA.gov is the U.S. government's official web portal to all federal, state and local government web resources and services.